Terminal Aerodrome Forecast
Issued by NWS Spokane, WA

Home | Current Version | Previous Version | Text Only | Print | Product List | Glossary On
Versions: 1 2 3 4 5 6 7 8 9 10 11 12 13 14
000
FTUS46 KOTX 252325
TAFLWS
TAF
KLWS 252325Z 2600/2624 04003KT P6SM FEW250
     FM260500 14003KT P6SM FEW250
     FM261400 04005KT P6SM FEW200
     FM262000 33005KT P6SM FEW200=

USA.gov is the U.S. government's official web portal to all federal, state and local government web resources and services.